San Antonio, Texas
Traffic Map
Current Weather Conditions
San Antonio, Texas
Broken Clouds
Broken Clouds
46°
Feels Like: 46°
Wind Chill: 46° Ceiling: 25000
Heat Index: 46° Visibility: 10mi
Dew Point: 38° Wind: 3mph
Humidity: 73% Direction: 300° (WNW)
Pressure: 29.98in Gusts: 0mph
Raw Report DataKSAT 260951Z 30003KT 10SM SCT019 BKN250 08/03 A2998 RMK AO2 SLP142 T00780033
Traffic Incident Summary
Active as of:
Severity:
Category:
InformationThere was an issue retrieving the traffic information for this location. Please try a different location or try again shortly.
Advertisements
Track Severe Weather on mobile